Time;durP1;ratioP1;P1;durP2;ratioP2;P2;SDS_P1;SDS_P2;PMS_P1;PMS_P2;Temp;Humidity;BMP_temperature;BMP_pressure;BME280_temperature;BME280_humidity;BME280_pressure;Samples;Min_cycle;Max_cycle;Signal;HPM_P1;HPM_P2
2023/06/26 00:01:32;;;;;;;0.20;0.20;;;;;;;16.21;70.02;99622.03;5064582;28;20506;-69
2023/06/26 00:03:59;;;;;;;0.20;0.20;;;;;;;16.19;70.55;99616.03;5085651;28;20040;-69
2023/06/26 00:06:25;;;;;;;0.20;0.20;;;;;;;16.21;69.42;99618.47;5086032;28;20409;-68
2023/06/26 00:08:54;;;;;;;0.20;0.20;;;;;;;16.21;69.85;99615.72;5083659;28;20129;-71
2023/06/26 00:11:20;;;;;;;0.10;0.10;;;;;;;16.23;70.24;99621.75;5085069;28;20259;-71
2023/06/26 00:13:47;;;;;;;0.20;0.20;;;;;;;16.25;71.03;99625.00;5081688;28;20131;-70
2023/06/26 00:16:13;;;;;;;0.20;0.20;;;;;;;16.28;70.37;99616.91;5084534;28;20047;-71
2023/06/26 00:18:39;;;;;;;0.30;0.30;;;;;;;16.27;69.27;99623.53;5083216;28;20490;-70
2023/06/26 00:21:05;;;;;;;0.20;0.20;;;;;;;16.27;69.19;99626.31;5066859;28;20120;-70
2023/06/26 00:23:32;;;;;;;0.20;0.20;;;;;;;16.25;69.58;99622.22;5083731;28;20037;-70
2023/06/26 00:26:01;;;;;;;;;;;;;;;16.19;69.89;99627.06;5083896;28;20506;-71
2023/06/26 00:28:27;;;;;;;0.20;0.20;;;;;;;16.14;69.96;99629.97;5083053;28;20026;-70
2023/06/26 00:30:53;;;;;;;0.20;0.20;;;;;;;16.08;70.14;99637.56;5084623;28;20063;-70
2023/06/26 00:33:22;;;;;;;0.22;0.22;;;;;;;16.02;69.39;99628.59;5067444;28;20063;-70
2023/06/26 00:35:48;;;;;;;0.20;0.20;;;;;;;15.98;70.78;99629.53;5084925;28;20106;-71
2023/06/26 00:38:14;;;;;;;0.20;0.20;;;;;;;15.94;70.33;99623.88;5092120;28;20056;-70
2023/06/26 00:40:40;;;;;;;0.20;0.20;;;;;;;15.94;70.74;99626.63;5103831;28;20054;-71
2023/06/26 00:43:08;;;;;;;0.20;0.20;;;;;;;15.94;71.31;99625.78;5098619;28;20139;-70
2023/06/26 00:45:34;;;;;;;0.20;0.20;;;;;;;15.95;71.54;99621.91;5101083;28;20059;-70
2023/06/26 00:48:01;;;;;;;0.10;0.10;;;;;;;15.98;70.95;99627.63;5086681;28;20071;-69
2023/06/26 00:50:27;;;;;;;0.20;0.20;;;;;;;16.01;71.14;99620.66;5082510;28;20069;-69
2023/06/26 00:52:56;;;;;;;0.30;0.30;;;;;;;16.02;71.57;99620.34;5086254;28;20040;-70
2023/06/26 00:55:23;;;;;;;0.20;0.20;;;;;;;16.01;72.33;99618.69;5100011;28;20047;-70
2023/06/26 00:57:49;;;;;;;0.20;0.20;;;;;;;15.96;72.84;99621.59;5101727;28;20384;-71
2023/06/26 01:00:17;;;;;;;0.20;0.20;;;;;;;15.92;72.58;99615.09;5105052;28;20055;-69
2023/06/26 01:02:44;;;;;;;0.20;0.20;;;;;;;15.93;72.30;99616.72;5069279;28;20055;-70
2023/06/26 01:05:12;;;;;;;0.10;0.10;;;;;;;15.89;72.90;99612.94;5097938;28;20063;-71
2023/06/26 01:07:40;;;;;;;0.30;0.30;;;;;;;15.80;73.24;99601.03;5101313;28;20054;-69
2023/06/26 01:10:07;;;;;;;0.10;0.10;;;;;;;15.85;73.51;99611.94;5076945;28;20068;-69
2023/06/26 01:12:34;;;;;;;0.20;0.20;;;;;;;15.86;73.60;99608.03;5080181;28;20063;-70
2023/06/26 01:15:00;;;;;;;0.20;0.20;;;;;;;15.88;73.90;99606.59;5082773;28;20048;-70
2023/06/26 01:17:31;;;;;;;0.27;0.20;;;;;;;15.88;74.51;99611.28;5093444;28;20102;-70
2023/06/26 01:19:59;;;;;;;0.20;0.20;;;;;;;15.87;75.05;99604.16;5084873;28;20506;-70
2023/06/26 01:22:32;;;;;;;0.20;0.20;;;;;;;15.84;75.05;99605.63;5085025;28;20135;-70
2023/06/26 01:25:12;;;;;;;0.20;0.20;;;;;;;15.85;75.57;99604.50;5103668;28;20047;-70
2023/06/26 01:27:42;;;;;;;0.20;0.20;;;;;;;15.90;75.56;99608.25;5081918;28;20040;-71
2023/06/26 01:30:10;;;;;;;0.10;0.10;;;;;;;15.92;75.86;99606.00;5101987;28;20044;-71
2023/06/26 01:32:36;;;;;;;0.20;0.20;;;;;;;15.93;74.23;99611.22;5086801;28;20059;-71
2023/06/26 01:35:03;;;;;;;0.20;0.20;;;;;;;15.94;74.29;99606.50;5081094;28;20099;-70
2023/06/26 01:37:30;;;;;;;0.20;0.20;;;;;;;15.94;75.00;99607.31;5084515;28;20407;-69
2023/06/26 01:39:56;;;;;;;0.20;0.20;;;;;;;15.95;74.79;99606.19;5100058;28;20136;-70
2023/06/26 01:42:22;;;;;;;0.22;0.22;;;;;;;15.94;75.22;99610.09;5102582;28;20043;-70
2023/06/26 01:44:52;;;;;;;0.20;0.20;;;;;;;15.96;75.13;99612.50;5103915;28;20067;-69
2023/06/26 01:47:24;;;;;;;0.10;0.10;;;;;;;16.01;74.32;99617.91;5085127;28;20043;-71
2023/06/26 01:49:55;;;;;;;0.20;0.20;;;;;;;16.08;72.97;99620.19;5094620;28;20047;-70
2023/06/26 01:52:28;;;;;;;0.20;0.20;;;;;;;16.10;72.14;99617.94;5098800;28;20542;-71
2023/06/26 01:55:01;;;;;;;0.20;0.20;;;;;;;16.06;72.35;99615.00;5079877;28;20079;-70
2023/06/26 01:57:31;;;;;;;0.20;0.20;;;;;;;16.16;71.72;99617.50;5080561;28;20064;-71
2023/06/26 02:00:02;;;;;;;0.20;0.20;;;;;;;16.13;72.41;99618.09;5083762;28;20071;-69
2023/06/26 02:02:42;;;;;;;0.20;0.20;;;;;;;16.14;72.06;99624.47;5083055;28;20044;-71
2023/06/26 02:05:08;;;;;;;0.10;0.10;;;;;;;16.13;72.30;99625.59;5081179;28;20070;-70
2023/06/26 02:07:35;;;;;;;0.20;0.20;;;;;;;16.12;72.99;99622.00;5082604;28;20044;-72
2023/06/26 02:10:03;;;;;;;0.20;0.20;;;;;;;16.11;73.60;99625.09;5081224;28;20048;-70
2023/06/26 02:12:31;;;;;;;0.20;0.20;;;;;;;16.15;72.79;99623.31;5063754;28;20080;-71
2023/06/26 02:14:59;;;;;;;0.20;0.20;;;;;;;16.19;72.18;99626.28;5064435;28;20055;-71
2023/06/26 02:17:25;;;;;;;0.20;0.20;;;;;;;16.21;71.67;99627.56;5079841;28;20141;-70
2023/06/26 02:19:55;;;;;;;0.20;0.20;;;;;;;16.23;71.45;99630.81;5096860;28;20050;-69
2023/06/26 02:22:21;;;;;;;0.20;0.20;;;;;;;16.26;71.56;99632.97;5099825;28;20055;-71
2023/06/26 02:24:48;;;;;;;0.10;0.10;;;;;;;16.30;71.34;99625.66;5083671;28;20127;-69
2023/06/26 02:27:14;;;;;;;0.20;0.20;;;;;;;16.34;70.33;99622.25;5087622;28;20044;-70
2023/06/26 02:29:41;;;;;;;0.20;0.20;;;;;;;16.37;70.47;99627.13;5086560;28;20109;-71
2023/06/26 02:32:10;;;;;;;0.30;0.30;;;;;;;16.39;70.09;99625.69;5046676;28;20055;-70
2023/06/26 02:34:36;;;;;;;0.20;0.20;;;;;;;16.41;69.59;99623.44;5066026;28;20040;-70
2023/06/26 02:37:02;;;;;;;0.20;0.20;;;;;;;16.44;69.02;99627.50;5072486;28;20039;-71
2023/06/26 02:39:29;;;;;;;;;;;;;;;16.44;68.89;99628.31;5083159;28;20044;-69
2023/06/26 02:41:55;;;;;;;0.20;0.20;;;;;;;16.43;69.64;99631.41;5084826;28;20412;-70
2023/06/26 02:44:23;;;;;;;0.20;0.20;;;;;;;16.42;70.21;99630.56;5086299;28;20050;-71
2023/06/26 02:46:50;;;;;;;0.17;0.17;;;;;;;16.41;70.95;99634.47;5083273;28;20052;-70
2023/06/26 02:49:17;;;;;;;0.20;0.20;;;;;;;16.38;71.03;99628.75;5081940;28;20517;-69
2023/06/26 02:51:45;;;;;;;0.25;0.20;;;;;;;16.36;71.64;99629.09;5103424;28;20537;-72
2023/06/26 02:54:17;;;;;;;0.28;0.28;;;;;;;16.38;71.88;99631.53;5103533;28;20047;-70
2023/06/26 02:56:46;;;;;;;0.30;0.30;;;;;;;16.41;71.06;99626.19;5088374;28;20063;-71
2023/06/26 02:59:12;;;;;;;0.20;0.20;;;;;;;16.46;70.55;99625.25;5103836;28;20510;-71
2023/06/26 03:01:38;;;;;;;0.20;0.20;;;;;;;16.47;71.17;99631.56;5104206;28;20047;-71
2023/06/26 03:04:04;;;;;;;0.20;0.20;;;;;;;16.44;72.04;99622.00;5105709;28;20112;-71
2023/06/26 03:06:33;;;;;;;0.20;0.20;;;;;;;16.47;71.33;99620.53;5098032;28;20079;-69
2023/06/26 03:08:59;;;;;;;0.20;0.20;;;;;;;16.49;71.28;99618.28;5073744;28;20051;-70
2023/06/26 03:11:25;;;;;;;0.20;0.20;;;;;;;16.45;71.41;99612.59;5071025;28;20067;-70
2023/06/26 03:13:51;;;;;;;0.20;0.20;;;;;;;16.56;71.40;99629.66;5086224;28;20044;-70
2023/06/26 03:16:18;;;;;;;0.28;0.28;;;;;;;16.59;70.79;99629.84;5085481;28;20192;-70
2023/06/26 03:18:44;;;;;;;0.20;0.20;;;;;;;16.63;70.61;99626.44;5068590;28;20059;-70
2023/06/26 03:21:10;;;;;;;0.20;0.20;;;;;;;16.64;69.93;99620.59;5092248;28;20044;-71
2023/06/26 03:23:38;;;;;;;0.20;0.20;;;;;;;16.69;70.17;99623.22;5067609;28;20130;-70
2023/06/26 03:26:04;;;;;;;0.20;0.20;;;;;;;16.73;70.58;99621.44;5082436;28;20070;-69
2023/06/26 03:28:32;;;;;;;0.20;0.20;;;;;;;16.80;70.24;99622.91;5065605;28;20043;-71
2023/06/26 03:30:59;;;;;;;0.20;0.20;;;;;;;16.85;70.44;99620.81;5062993;28;20136;-71
2023/06/26 03:33:26;;;;;;;0.28;0.28;;;;;;;16.86;69.56;99600.38;5064993;28;20052;-70
2023/06/26 03:35:54;;;;;;;0.30;0.30;;;;;;;17.07;68.82;99615.50;5050737;28;20094;-71
2023/06/26 03:38:21;;;;;;;0.20;0.20;;;;;;;17.08;67.78;99609.66;5086529;28;20048;-70
2023/06/26 03:40:48;;;;;;;0.30;0.30;;;;;;;17.32;67.53;99608.38;5068628;28;20696;-71
2023/06/26 03:43:14;;;;;;;;;;;;;;;17.53;67.64;99621.56;5085320;28;20113;-71
2023/06/26 03:45:51;;;;;;;0.20;0.20;;;;;;;17.68;66.37;99618.28;5083819;28;19969;-71
2023/06/26 03:48:18;;;;;;;0.30;0.30;;;;;;;17.76;66.30;99618.59;5083715;28;20464;-69
2023/06/26 03:50:45;;;;;;;0.30;0.30;;;;;;;17.89;65.81;99619.56;5068188;28;20066;-71
2023/06/26 03:53:11;;;;;;;0.30;0.30;;;;;;;17.98;65.39;99615.63;5067030;28;20055;-71
2023/06/26 03:55:40;;;;;;;0.25;0.25;;;;;;;18.03;64.43;99614.69;5066117;28;20051;-70
2023/06/26 03:58:08;;;;;;;0.30;0.30;;;;;;;18.06;63.15;99615.94;5090605;28;20052;-70
2023/06/26 04:00:34;;;;;;;0.20;0.20;;;;;;;18.09;63.18;99621.63;5088393;28;20098;-71
2023/06/26 04:03:00;;;;;;;0.30;0.30;;;;;;;18.21;62.80;99609.88;5087899;28;20075;-70
2023/06/26 04:05:27;;;;;;;0.30;0.30;;;;;;;18.41;61.59;99611.09;5063867;28;20122;-69
2023/06/26 04:07:53;;;;;;;0.30;0.30;;;;;;;18.62;59.50;99612.31;5070265;28;20079;-71
2023/06/26 04:10:21;;;;;;;0.20;0.20;;;;;;;18.76;58.99;99601.00;5092594;28;20097;-70
2023/06/26 04:12:48;;;;;;;0.20;0.20;;;;;;;18.90;58.72;99603.53;5095788;28;20055;-71
2023/06/26 04:15:15;;;;;;;0.20;0.20;;;;;;;19.02;57.32;99614.69;5103910;28;20427;-71
2023/06/26 04:17:41;;;;;;;0.20;0.20;;;;;;;19.12;56.58;99606.00;5098119;28;20104;-71
2023/06/26 04:20:09;;;;;;;0.20;0.20;;;;;;;19.21;55.14;99603.16;5074362;28;20054;-71
2023/06/26 04:22:35;;;;;;;0.30;0.30;;;;;;;19.30;55.51;99605.84;5047296;28;20554;-71
2023/06/26 04:25:03;;;;;;;0.20;0.20;;;;;;;19.42;54.50;99599.56;5082656;28;20040;-70
2023/06/26 04:27:31;;;;;;;0.30;0.30;;;;;;;19.50;54.21;99606.16;5105470;28;20047;-71
2023/06/26 04:29:57;;;;;;;0.30;0.30;;;;;;;19.59;53.86;99609.69;5085687;28;20075;-70
2023/06/26 04:32:24;;;;;;;0.30;0.30;;;;;;;19.70;52.83;99607.28;5087019;28;20048;-70
2023/06/26 04:34:51;;;;;;;0.30;0.30;;;;;;;19.76;52.93;99608.72;5086819;28;20472;-70
2023/06/26 04:37:17;;;;;;;0.30;0.30;;;;;;;19.87;53.50;99609.09;5075793;28;20054;-70
2023/06/26 04:39:43;;;;;;;0.20;0.20;;;;;;;20.00;53.55;99606.38;5072127;28;20457;-71
2023/06/26 04:42:11;;;;;;;0.30;0.30;;;;;;;20.12;52.88;99600.84;5078415;28;20302;-71
2023/06/26 04:44:38;;;;;;;0.30;0.30;;;;;;;20.14;52.30;99598.56;5092493;28;20410;-71
2023/06/26 04:47:05;;;;;;;0.30;0.30;;;;;;;20.17;52.06;99608.13;5081139;28;20047;-71
2023/06/26 04:49:32;;;;;;;0.20;0.20;;;;;;;20.21;52.90;99607.09;5091031;28;20301;-70
2023/06/26 04:52:00;;;;;;;0.30;0.30;;;;;;;20.26;52.15;99600.53;5103992;28;20483;-70
2023/06/26 04:54:27;;;;;;;0.30;0.30;;;;;;;20.27;52.28;99602.16;5105832;28;20054;-71
2023/06/26 04:56:54;;;;;;;0.35;0.30;;;;;;;20.30;52.03;99595.91;5090583;28;20059;-71
2023/06/26 04:59:20;;;;;;;0.30;0.30;;;;;;;20.35;51.93;99595.66;5085553;28;20660;-70
2023/06/26 05:01:47;;;;;;;0.30;0.30;;;;;;;20.36;51.49;99596.47;5081406;28;20044;-71
2023/06/26 05:04:17;;;;;;;0.30;0.30;;;;;;;20.33;51.46;99586.06;5080680;28;20071;-70
2023/06/26 05:06:45;;;;;;;0.30;0.30;;;;;;;20.37;51.07;99589.78;5083080;28;20134;-70
2023/06/26 05:09:11;;;;;;;0.30;0.30;;;;;;;20.46;50.85;99601.59;5083561;28;20048;-70
2023/06/26 05:11:37;;;;;;;0.30;0.30;;;;;;;20.45;50.82;99597.19;5066640;28;20633;-70
2023/06/26 05:14:06;;;;;;;0.30;0.30;;;;;;;20.42;51.16;99603.41;5090535;28;20052;-71
2023/06/26 05:16:34;;;;;;;0.30;0.30;;;;;;;20.45;50.99;99601.91;5084121;28;20071;-71
2023/06/26 05:19:00;;;;;;;0.30;0.30;;;;;;;20.46;51.18;99597.97;5082284;28;20048;-70
2023/06/26 05:21:27;;;;;;;0.30;0.30;;;;;;;20.51;51.31;99606.06;5081561;28;20633;-71
2023/06/26 05:23:57;;;;;;;0.30;0.30;;;;;;;20.54;51.32;99597.06;5052832;28;20052;-71
2023/06/26 05:26:24;;;;;;;0.30;0.30;;;;;;;20.57;51.00;99598.31;5063508;28;20101;-69
2023/06/26 05:28:50;;;;;;;0.30;0.30;;;;;;;20.58;50.57;99603.53;5074987;28;20136;-71
2023/06/26 05:31:17;;;;;;;0.30;0.30;;;;;;;20.63;50.83;99594.19;5075113;28;20071;-71
2023/06/26 05:33:45;;;;;;;0.25;0.25;;;;;;;20.69;50.10;99590.81;5103209;28;20047;-71
2023/06/26 05:36:13;;;;;;;0.30;0.30;;;;;;;20.72;50.29;99592.06;5071095;28;20051;-71
2023/06/26 05:38:40;;;;;;;0.30;0.30;;;;;;;20.82;50.34;99590.81;5090593;28;20465;-71
2023/06/26 05:41:08;;;;;;;0.30;0.30;;;;;;;20.92;49.24;99592.31;5086951;28;20177;-73
2023/06/26 05:43:35;;;;;;;0.30;0.30;;;;;;;20.95;48.31;99588.84;5103708;28;20043;-71
2023/06/26 05:46:01;;;;;;;0.30;0.30;;;;;;;21.01;48.40;99590.19;5101455;28;20457;-71
2023/06/26 05:48:27;;;;;;;0.30;0.30;;;;;;;20.99;47.44;99592.53;5103550;28;20425;-71
2023/06/26 05:50:54;;;;;;;0.30;0.30;;;;;;;21.01;46.86;99597.75;5084729;28;20506;-72
2023/06/26 05:53:21;;;;;;;0.30;0.30;;;;;;;21.03;46.80;99590.66;5088740;28;20136;-71
2023/06/26 05:55:48;;;;;;;0.30;0.30;;;;;;;21.08;46.60;99586.84;5083895;28;20059;-72
2023/06/26 05:58:17;;;;;;;0.28;0.28;;;;;;;21.13;46.24;99588.56;5070231;28;20547;-71
2023/06/26 06:00:44;;;;;;;0.25;0.25;;;;;;;21.10;45.75;99593.66;5086310;28;20051;-71
2023/06/26 06:03:10;;;;;;;0.30;0.30;;;;;;;21.09;45.20;99583.72;5068512;28;20129;-71
2023/06/26 06:05:37;;;;;;;0.30;0.30;;;;;;;21.09;44.09;99586.50;5085341;28;20069;-71
2023/06/26 06:08:03;;;;;;;0.30;0.30;;;;;;;21.08;43.54;99579.31;5086269;28;20541;-70
2023/06/26 06:10:29;;;;;;;0.30;0.30;;;;;;;21.16;43.30;99587.84;5085173;28;20446;-71
2023/06/26 06:12:56;;;;;;;0.30;0.30;;;;;;;21.18;42.91;99588.31;5086200;28;20067;-71
2023/06/26 06:15:23;;;;;;;0.30;0.30;;;;;;;21.21;43.55;99582.88;5083685;28;20163;-70
2023/06/26 06:17:49;;;;;;;0.30;0.30;;;;;;;21.29;42.83;99589.44;5110615;28;20394;-71
2023/06/26 06:20:16;;;;;;;0.30;0.30;;;;;;;21.39;42.78;99579.78;5104833;28;20586;-71
2023/06/26 06:22:42;;;;;;;0.20;0.20;;;;;;;21.49;42.38;99584.03;5089066;28;20139;-71
2023/06/26 06:25:09;;;;;;;0.30;0.30;;;;;;;21.57;41.89;99583.06;5087774;28;20059;-71
2023/06/26 06:27:35;;;;;;;0.30;0.30;;;;;;;21.72;42.27;99581.50;5088012;28;20079;-70
2023/06/26 06:30:02;;;;;;;0.30;0.30;;;;;;;21.88;40.67;99584.34;5086808;28;20572;-70
2023/06/26 06:32:32;;;;;;;0.30;0.30;;;;;;;22.10;40.42;99582.09;5090051;28;20519;-70
2023/06/26 06:34:58;;;;;;;0.30;0.30;;;;;;;22.24;39.91;99576.06;5086600;28;20048;-72
2023/06/26 06:37:24;;;;;;;0.30;0.30;;;;;;;22.45;40.32;99573.00;5071418;28;20097;-71
2023/06/26 06:39:50;;;;;;;0.30;0.30;;;;;;;22.68;39.81;99577.97;5088232;28;20051;-71
2023/06/26 06:42:17;;;;;;;0.30;0.30;;;;;;;22.85;39.67;99585.09;5098343;28;20046;-71
2023/06/26 06:44:43;;;;;;;0.30;0.30;;;;;;;23.03;38.75;99577.13;5089453;28;20051;-71
2023/06/26 06:47:09;;;;;;;0.30;0.30;;;;;;;23.12;38.68;99581.72;5100690;28;20051;-71
2023/06/26 06:49:37;;;;;;;0.30;0.30;;;;;;;23.19;37.86;99581.84;5082003;28;20435;-71
2023/06/26 06:52:04;;;;;;;0.40;0.40;;;;;;;23.25;38.22;99577.59;5085205;28;20056;-71
2023/06/26 06:54:30;;;;;;;0.30;0.30;;;;;;;23.44;37.51;99571.22;5083907;28;20074;-71
2023/06/26 06:56:56;;;;;;;0.30;0.30;;;;;;;23.54;36.78;99569.03;5090820;28;20052;-71
2023/06/26 06:59:22;;;;;;;0.30;0.30;;;;;;;23.66;37.13;99568.88;5082786;28;20036;-71
2023/06/26 07:01:48;;;;;;;0.30;0.30;;;;;;;23.73;37.09;99576.56;5052431;28;20052;-71
2023/06/26 07:04:15;;;;;;;0.30;0.30;;;;;;;23.74;36.43;99564.22;5084135;28;20534;-70
2023/06/26 07:06:42;;;;;;;0.30;0.30;;;;;;;23.82;36.14;99562.38;5084283;28;20040;-70
2023/06/26 07:09:08;;;;;;;0.30;0.30;;;;;;;23.79;34.60;99573.09;5086784;28;20526;-71
2023/06/26 07:11:34;;;;;;;0.30;0.30;;;;;;;23.74;34.82;99570.59;5088635;28;20048;-71
2023/06/26 07:14:01;;;;;;;0.40;0.40;;;;;;;23.84;35.18;99571.19;5088882;28;20507;-71
2023/06/26 07:16:27;;;;;;;0.30;0.30;;;;;;;23.92;35.01;99565.34;5085306;28;20105;-71
2023/06/26 07:18:54;;;;;;;0.30;0.30;;;;;;;24.10;35.07;99567.69;5088530;28;20522;-71
2023/06/26 07:21:20;;;;;;;0.30;0.30;;;;;;;24.15;34.34;99558.19;5089591;28;20057;-71
2023/06/26 07:23:48;;;;;;;0.30;0.30;;;;;;;24.18;34.95;99561.03;5088052;28;20113;-71
2023/06/26 07:26:15;;;;;;;0.30;0.30;;;;;;;24.29;35.32;99561.22;5088083;28;20048;-71
2023/06/26 07:28:41;;;;;;;0.30;0.30;;;;;;;24.57;35.05;99559.25;5090427;28;20040;-71
2023/06/26 07:31:08;;;;;;;0.30;0.30;;;;;;;24.68;34.93;99560.22;5088183;28;20048;-71
2023/06/26 07:33:34;;;;;;;0.30;0.30;;;;;;;24.79;34.56;99560.41;5083734;28;20321;-71
2023/06/26 07:36:00;;;;;;;0.30;0.30;;;;;;;24.99;34.44;99555.47;5065472;28;20101;-71
2023/06/26 07:38:26;;;;;;;0.40;0.40;;;;;;;25.24;34.31;99552.19;5067573;28;20064;-71
2023/06/26 07:40:54;;;;;;;0.40;0.40;;;;;;;25.52;33.98;99552.91;5067649;28;20529;-71
2023/06/26 07:43:22;;;;;;;0.40;0.40;;;;;;;25.57;33.66;99547.78;5066115;28;20075;-71
2023/06/26 07:45:48;;;;;;;0.30;0.30;;;;;;;25.84;33.80;99558.06;5085825;28;20499;-71
2023/06/26 07:48:14;;;;;;;0.35;0.35;;;;;;;26.10;32.60;99554.31;5083053;28;20119;-71
2023/06/26 07:50:41;;;;;;;0.40;0.40;;;;;;;26.25;32.49;99551.66;5084608;28;20483;-70
2023/06/26 07:53:07;;;;;;;0.40;0.40;;;;;;;26.33;32.76;99533.69;5085204;28;20067;-71
2023/06/26 07:55:33;;;;;;;0.40;0.40;;;;;;;26.28;32.51;99543.25;5065250;28;20039;-71
2023/06/26 07:58:01;;;;;;;0.37;0.37;;;;;;;26.18;32.31;99541.97;5087185;28;20044;-71
2023/06/26 08:00:27;;;;;;;0.32;0.32;;;;;;;26.49;32.15;99536.22;5088349;28;20603;-71
2023/06/26 08:02:53;;;;;;;0.40;0.40;;;;;;;26.39;32.08;99536.94;5084238;28;20221;-71
2023/06/26 08:05:19;;;;;;;0.40;0.40;;;;;;;26.55;31.88;99534.63;5079971;28;20046;-70
2023/06/26 08:07:46;;;;;;;0.30;0.30;;;;;;;26.69;31.63;99536.72;5083647;28;20052;-71
2023/06/26 08:10:13;;;;;;;0.30;0.30;;;;;;;26.35;32.11;99544.53;5081188;28;20508;-70
2023/06/26 08:12:40;;;;;;;0.30;0.30;;;;;;;25.80;33.12;99532.00;5082210;28;20945;-70
2023/06/26 08:15:09;;;;;;;0.30;0.30;;;;;;;25.46;33.97;99535.66;5068137;28;20040;-70
2023/06/26 08:17:36;;;;;;;0.40;0.40;;;;;;;25.40;33.84;99529.59;5083594;28;20584;-71
2023/06/26 08:20:02;;;;;;;0.40;0.40;;;;;;;26.19;32.75;99526.00;5065382;28;20054;-71
2023/06/26 08:22:31;;;;;;;0.40;0.40;;;;;;;26.82;31.82;99528.78;5082265;28;20468;-71
2023/06/26 08:24:57;;;;;;;0.30;0.30;;;;;;;26.65;32.33;99530.28;5083733;28;20044;-71
2023/06/26 08:27:23;;;;;;;0.30;0.30;;;;;;;26.30;32.76;99534.47;5082067;28;20154;-71
2023/06/26 08:29:50;;;;;;;0.30;0.30;;;;;;;26.06;33.22;99536.63;5080852;28;20531;-72
2023/06/26 08:32:18;;;;;;;0.30;0.30;;;;;;;25.77;33.62;99530.81;5083139;28;20054;-71
2023/06/26 08:34:44;;;;;;;0.30;0.30;;;;;;;25.55;33.65;99527.00;5066643;28;20044;-71
2023/06/26 08:37:11;;;;;;;0.30;0.30;;;;;;;25.40;33.61;99531.56;5083888;28;20059;-71
2023/06/26 08:39:37;;;;;;;0.38;0.38;;;;;;;25.10;33.58;99536.03;5078388;28;20078;-71
2023/06/26 08:42:04;;;;;;;0.35;0.35;;;;;;;24.92;34.25;99536.63;5083256;28;20040;-71
2023/06/26 08:44:30;;;;;;;0.40;0.40;;;;;;;25.36;33.91;99537.13;5086874;28;20066;-70
2023/06/26 08:46:58;;;;;;;0.30;0.30;;;;;;;25.43;33.63;99537.22;5085951;28;20079;-71
2023/06/26 08:49:33;;;;;;;0.30;0.30;;;;;;;25.12;33.72;99533.66;5082446;28;20135;-71
2023/06/26 08:52:02;;;;;;;0.28;0.28;;;;;;;24.70;34.36;99520.69;5083756;28;20078;-71
2023/06/26 08:54:36;;;;;;;0.30;0.30;;;;;;;24.36;35.23;99533.41;5080434;28;20079;-70
2023/06/26 08:57:05;;;;;;;0.30;0.30;;;;;;;24.05;35.73;99535.28;5079733;28;20193;-71
2023/06/26 08:59:32;;;;;;;0.30;0.30;;;;;;;24.39;34.88;99534.63;5081627;28;20047;-70
2023/06/26 09:01:58;;;;;;;0.30;0.30;;;;;;;24.40;35.02;99521.47;5078510;28;20055;-71
2023/06/26 09:04:26;;;;;;;0.30;0.30;;;;;;;24.15;35.17;99533.84;5084541;28;20044;-70
2023/06/26 09:06:53;;;;;;;0.22;0.22;;;;;;;23.94;35.50;99529.50;5084630;28;20050;-70
2023/06/26 09:09:20;;;;;;;0.30;0.30;;;;;;;23.81;35.79;99524.50;5084333;28;20071;-70
2023/06/26 09:11:46;;;;;;;0.30;0.30;;;;;;;23.71;36.18;99531.47;5083287;28;20048;-71
2023/06/26 09:14:13;;;;;;;0.30;0.30;;;;;;;23.65;36.38;99537.38;5065311;28;20047;-71
2023/06/26 09:16:41;;;;;;;0.30;0.30;;;;;;;23.62;36.52;99540.06;5081134;28;20043;-71
2023/06/26 09:19:11;;;;;;;0.28;0.28;;;;;;;23.49;35.38;99543.06;5083711;28;20055;-70
2023/06/26 09:21:40;;;;;;;0.30;0.30;;;;;;;23.32;33.88;99537.91;5083196;28;20044;-70
2023/06/26 09:24:08;;;;;;;0.30;0.30;;;;;;;23.28;33.81;99539.81;5082063;28;20083;-71
2023/06/26 09:26:36;;;;;;;0.30;0.30;;;;;;;23.36;33.65;99536.03;5080558;28;20051;-70
2023/06/26 09:29:02;;;;;;;0.30;0.30;;;;;;;23.41;33.67;99537.69;5067360;28;20040;-70
2023/06/26 09:31:29;;;;;;;0.30;0.30;;;;;;;23.39;33.80;99540.84;5083912;28;20055;-70
2023/06/26 09:33:59;;;;;;;0.30;0.30;;;;;;;23.37;34.38;99544.00;5080755;28;20059;-70
2023/06/26 09:36:28;;;;;;;0.20;0.20;;;;;;;23.26;34.63;99537.44;5055832;28;20097;-71
2023/06/26 09:38:56;;;;;;;0.30;0.30;;;;;;;23.16;35.46;99529.63;5046296;28;20048;-71
2023/06/26 09:41:23;;;;;;;0.30;0.30;;;;;;;23.12;35.41;99526.75;5079825;28;20041;-71
2023/06/26 09:43:50;;;;;;;0.30;0.30;;;;;;;23.11;35.53;99532.69;5084996;28;20052;-71
2023/06/26 09:46:17;;;;;;;0.20;0.20;;;;;;;23.04;35.13;99533.34;5079227;28;20048;-71
2023/06/26 09:48:43;;;;;;;0.22;0.22;;;;;;;23.03;35.03;99526.97;5083810;28;20062;-71
2023/06/26 09:51:10;;;;;;;0.30;0.30;;;;;;;23.04;35.25;99522.22;5082520;28;20044;-70
2023/06/26 09:53:36;;;;;;;0.30;0.30;;;;;;;23.21;34.53;99523.72;5082983;28;20059;-70
2023/06/26 09:56:07;;;;;;;0.20;0.20;;;;;;;23.39;34.87;99514.94;5082224;28;20329;-70
2023/06/26 09:58:33;;;;;;;0.30;0.30;;;;;;;23.54;34.77;99514.03;5081229;28;20794;-71
2023/06/26 10:01:00;;;;;;;0.30;0.30;;;;;;;24.02;34.24;99524.03;5083430;28;20051;-72
2023/06/26 10:03:26;;;;;;;;;;;;;;;24.15;33.92;99521.91;5081786;28;20135;-70
2023/06/26 10:05:54;;;;;;;0.30;0.30;;;;;;;24.14;34.06;99517.50;5086360;28;20061;-71
2023/06/26 10:08:21;;;;;;;0.30;0.30;;;;;;;24.03;34.75;99515.31;5082453;28;20048;-71
2023/06/26 10:10:48;;;;;;;0.30;0.30;;;;;;;23.98;35.23;99523.16;5080903;28;20048;-71
2023/06/26 10:13:22;;;;;;;0.30;0.30;;;;;;;23.79;35.12;99517.28;5085040;28;20606;-70
2023/06/26 10:15:50;;;;;;;0.30;0.30;;;;;;;23.79;35.07;99522.84;5049087;28;20048;-71
2023/06/26 10:18:18;;;;;;;0.30;0.30;;;;;;;23.81;34.71;99516.91;5084121;28;20051;-71
2023/06/26 10:20:46;;;;;;;0.30;0.30;;;;;;;23.91;34.16;99518.28;5082121;28;20036;-69
2023/06/26 10:23:14;;;;;;;0.30;0.30;;;;;;;24.12;34.47;99511.44;5083210;28;20437;-70
2023/06/26 10:25:44;;;;;;;0.30;0.30;;;;;;;24.25;34.14;99507.28;5068786;28;20050;-70
2023/06/26 10:28:12;;;;;;;0.30;0.30;;;;;;;24.32;33.96;99507.41;5082146;28;20044;-70
2023/06/26 10:30:41;;;;;;;0.30;0.30;;;;;;;24.37;33.78;99503.50;5084208;28;20032;-71
2023/06/26 10:33:07;;;;;;;0.30;0.30;;;;;;;24.35;33.73;99503.03;5075987;28;20101;-72
2023/06/26 10:35:43;;;;;;;0.30;0.30;;;;;;;24.25;33.81;99507.28;5081517;28;20147;-71
2023/06/26 10:38:09;;;;;;;0.30;0.30;;;;;;;24.38;34.37;99504.28;5080223;28;20509;-70
2023/06/26 10:40:42;;;;;;;;;;;;;;;24.56;34.18;99496.94;4728660;28;9999868;-71
2023/06/26 10:43:09;;;;;;;0.40;0.40;;;;;;;24.82;33.63;99491.72;5048364;28;19931;-73
2023/06/26 10:45:36;;;;;;;0.40;0.40;;;;;;;25.11;33.39;99489.28;5077251;28;20052;-70
2023/06/26 10:48:04;;;;;;;0.47;0.40;;;;;;;25.69;32.64;99489.94;5081916;28;20044;-70
2023/06/26 10:50:32;;;;;;;0.40;0.40;;;;;;;26.11;31.85;99483.09;5082704;28;20133;-71
2023/06/26 10:53:35;;;;;;;0.50;0.50;;;;;;;26.56;31.29;99483.00;5064278;28;20647;-71
2023/06/26 10:56:03;;;;;;;0.50;0.50;;;;;;;27.02;30.83;99478.84;5081584;28;20257;-72
2023/06/26 10:58:31;;;;;;;0.50;0.50;;;;;;;27.22;30.28;99481.28;5083927;28;20040;-71
2023/06/26 11:01:21;;;;;;;0.50;0.50;;;;;;;27.46;30.55;99476.13;5085820;28;20507;-72
2023/06/26 11:04:01;;;;;;;0.60;0.60;;;;;;;27.79;30.06;99471.41;5065821;28;20081;-71
2023/06/26 11:06:27;;;;;;;0.60;0.60;;;;;;;27.88;29.73;99468.19;5081410;28;20044;-71
2023/06/26 11:08:59;;;;;;;0.50;0.50;;;;;;;27.86;29.65;99451.72;5079877;28;20059;-71
2023/06/26 11:11:58;;;;;;;0.57;0.57;;;;;;;28.31;27.94;99470.16;5080017;28;20051;-71
2023/06/26 11:14:26;;;;;;;0.70;0.70;;;;;;;28.48;28.46;99454.44;5074159;28;20225;-71
2023/06/26 11:16:54;;;;;;;0.90;0.90;;;;;;;29.32;27.10;99459.72;5075136;28;20047;-71
2023/06/26 11:19:22;;;;;;;1.00;1.00;;;;;;;30.62;25.35;99464.31;5078846;28;20436;-71
2023/06/26 11:21:49;;;;;;;1.10;1.10;;;;;;;31.75;24.10;99457.91;5077921;28;20043;-70
2023/06/26 11:24:16;;;;;;;1.10;1.10;;;;;;;32.92;22.55;99453.78;5075967;28;20110;-71
2023/06/26 11:26:43;;;;;;;;;;;;;;;33.66;22.43;99452.50;5064615;28;20075;-70
2023/06/26 11:29:10;;;;;;;1.10;1.10;;;;;;;34.65;20.99;99448.69;5064021;28;19924;-72
2023/06/26 11:31:38;;;;;;;1.30;1.20;;;;;;;36.13;19.18;99442.44;5081105;28;20048;-70
2023/06/26 11:34:07;;;;;;;1.30;1.20;;;;;;;37.31;18.31;99449.09;5080972;28;20044;-71
2023/06/26 11:36:38;;;;;;;1.13;1.13;;;;;;;37.06;17.74;99448.03;5082719;28;20035;-72